Time;durP1;ratioP1;P1;durP2;ratioP2;P2;SDS_P1;SDS_P2;PMS_P1;PMS_P2;Temp;Humidity;BMP_temperature;BMP_pressure;BME280_temperature;BME280_humidity;BME280_pressure;Samples;Min_cycle;Max_cycle;Signal;HPM_P1;HPM_P2
2024/02/06 00:01:50;;;;;;;;;8.75;8.75;;;;;-143.90;100.00;75083.31;4874128;28;103604;-72
2024/02/06 00:04:18;;;;;;;;;11.50;11.00;;;;;-143.90;100.00;75089.53;4863746;28;101814;-73
2024/02/06 00:06:45;;;;;;;;;14.25;11.00;;;;;-143.90;100.00;75093.66;4862512;28;102981;-71
2024/02/06 00:09:12;;;;;;;;;14.00;12.25;;;;;-143.90;100.00;75089.53;4869779;28;101942;-72
2024/02/06 00:11:38;;;;;;;;;9.50;8.00;;;;;-143.90;100.00;75087.47;4870018;28;103428;-72
2024/02/06 00:14:05;;;;;;;;;10.50;8.00;;;;;-143.90;100.00;75087.47;4866088;28;102027;-71
2024/02/06 00:16:32;;;;;;;;;11.50;9.25;;;;;-143.90;100.00;75089.53;4860753;28;101702;-72
2024/02/06 00:18:59;;;;;;;;;12.25;8.75;;;;;-143.90;100.00;75097.78;4864541;28;103044;-72
2024/02/06 00:21:25;;;;;;;;;8.00;7.50;;;;;-143.90;100.00;75087.47;4866265;28;103268;-72
2024/02/06 00:23:52;;;;;;;;;11.25;7.75;;;;;-143.90;100.00;75097.78;4863040;28;101961;-72
2024/02/06 00:26:18;;;;;;;;;8.00;7.50;;;;;-143.90;100.00;75097.78;4868033;28;102691;-71
2024/02/06 00:28:46;;;;;;;;;6.75;6.00;;;;;-143.90;100.00;75089.53;4861762;28;101516;-73
2024/02/06 00:31:13;;;;;;;;;7.00;6.00;;;;;-143.90;100.00;75095.72;4872101;28;104808;-72
2024/02/06 00:33:39;;;;;;;;;9.50;7.75;;;;;-143.90;100.00;75101.94;4867266;28;101844;-72
2024/02/06 00:36:06;;;;;;;;;10.25;9.00;;;;;-143.90;100.00;75091.59;4864389;28;101910;-72
2024/02/06 00:38:33;;;;;;;;;9.00;7.75;;;;;-143.90;100.00;75101.94;4870925;28;101604;-72
2024/02/06 00:41:00;;;;;;;;;7.00;6.00;;;;;-143.90;100.00;75091.59;4857562;28;103352;-72
2024/02/06 00:43:28;;;;;;;;;7.00;7.00;;;;;-143.90;100.00;75095.72;4849308;28;102373;-72
2024/02/06 00:45:55;;;;;;;;;9.50;8.50;;;;;-143.90;100.00;75101.94;4874442;28;101991;-72
2024/02/06 00:48:21;;;;;;;;;5.00;5.00;;;;;-143.90;100.00;75089.53;4877855;28;103969;-72
2024/02/06 00:50:48;;;;;;;;;8.25;7.00;;;;;-143.90;100.00;75101.94;4863912;28;105930;-72
2024/02/06 00:53:15;;;;;;;;;10.50;8.00;;;;;-143.90;100.00;75104.00;4863852;28;102281;-73
2024/02/06 00:55:42;;;;;;;;;2.75;1.50;;;;;-143.90;100.00;75097.78;4871955;28;101883;-72
2024/02/06 00:58:08;;;;;;;;;8.50;7.00;;;;;-143.90;100.00;75091.59;4871141;28;102981;-72
2024/02/06 01:00:36;;;;;;;;;8.00;7.00;;;;;-143.90;100.00;75099.88;4852112;28;103368;-72
2024/02/06 01:03:03;;;;;;;;;10.00;8.00;;;;;-143.90;100.00;75104.00;4870617;28;101755;-72
2024/02/06 01:05:30;;;;;;;;;8.75;4.50;;;;;-143.90;100.00;75097.78;4863174;28;101898;-72
2024/02/06 01:07:57;;;;;;;;;9.25;7.00;;;;;-143.90;100.00;75097.78;4877191;28;102113;-72
2024/02/06 01:10:24;;;;;;;;;8.00;6.25;;;;;-143.90;100.00;75106.06;4863659;28;103980;-73
2024/02/06 01:12:51;;;;;;;;;7.00;5.00;;;;;-143.90;100.00;75097.78;4857751;28;102892;-73
2024/02/06 01:15:18;;;;;;;;;6.25;6.00;;;;;-143.90;100.00;75110.19;4868883;28;105011;-72
2024/02/06 01:17:45;;;;;;;;;7.00;7.00;;;;;-143.90;100.00;75106.06;4867112;28;103553;-73
2024/02/06 01:20:11;;;;;;;;;8.00;5.00;;;;;-143.90;100.00;75116.41;4871665;28;103521;-73
2024/02/06 01:22:38;;;;;;;;;6.50;6.50;;;;;-143.90;100.00;75108.13;4862453;28;101973;-72
2024/02/06 01:25:05;;;;;;;;;5.50;3.50;;;;;-143.90;100.00;75118.47;4864083;28;101710;-72
2024/02/06 01:27:32;;;;;;;;;10.75;8.00;;;;;-143.90;100.00;75122.59;4867063;28;102175;-72
2024/02/06 01:29:58;;;;;;;;;7.00;6.00;;;;;-143.90;100.00;75126.75;4864261;28;103452;-72
2024/02/06 01:32:25;;;;;;;;;11.25;10.00;;;;;-143.90;100.00;75130.88;4864900;28;101963;-73
2024/02/06 01:34:52;;;;;;;;;10.25;8.50;;;;;-143.90;100.00;75135.00;4851293;28;103052;-72
2024/02/06 01:37:19;;;;;;;;;11.75;9.00;;;;;-143.90;100.00;75135.00;4866443;28;101930;-73
2024/02/06 01:39:45;;;;;;;;;8.00;8.00;;;;;-143.90;100.00;75137.06;4864626;28;103145;-73
2024/02/06 01:42:12;;;;;;;;;6.00;6.00;;;;;-143.90;100.00;75141.22;4868153;28;101865;-73
2024/02/06 01:44:39;;;;;;;;;8.00;6.25;;;;;-143.90;100.00;75147.41;4865343;28;101938;-73
2024/02/06 01:47:07;;;;;;;;;9.50;6.50;;;;;-143.90;100.00;75149.47;4858941;28;104197;-72
2024/02/06 01:49:35;;;;;;;;;9.50;7.00;;;;;-143.90;100.00;75147.41;4863137;28;103472;-72
2024/02/06 01:52:04;;;;;;;;;7.50;4.50;;;;;-143.90;100.00;75132.94;4863614;28;101627;-73
2024/02/06 01:54:31;;;;;;;;;10.25;8.50;;;;;-143.90;100.00;75143.28;4860177;28;101734;-72
2024/02/06 01:56:57;;;;;;;;;9.25;7.25;;;;;-143.90;100.00;75139.16;4856924;28;102213;-72
2024/02/06 01:59:24;;;;;;;;;9.00;7.75;;;;;-143.90;100.00;75141.22;4864456;28;103273;-72
2024/02/06 02:01:51;;;;;;;;;6.25;6.00;;;;;-143.90;100.00;75139.16;4861041;28;103996;-73
2024/02/06 02:04:19;;;;;;;;;8.50;7.00;;;;;-143.90;100.00;75141.22;4860058;28;101819;-72
2024/02/06 02:06:47;;;;;;;;;6.25;6.00;;;;;-143.90;100.00;75139.16;4852611;28;101642;-72
2024/02/06 02:09:14;;;;;;;;;9.25;7.00;;;;;-143.90;100.00;75135.00;4857149;28;107963;-72
2024/02/06 02:11:40;;;;;;;;;8.00;5.25;;;;;-143.90;100.00;75141.22;4863203;28;103020;-72
2024/02/06 02:14:07;;;;;;;;;4.00;4.00;;;;;-143.90;100.00;75147.41;4871067;28;101980;-72
2024/02/06 02:16:34;;;;;;;;;5.00;5.00;;;;;-143.90;100.00;75147.41;4859528;28;101671;-71
2024/02/06 02:19:04;;;;;;;;;7.25;6.75;;;;;-143.90;100.00;75153.63;4857091;28;106188;-71
2024/02/06 02:21:30;;;;;;;;;8.50;7.25;;;;;-143.90;100.00;75147.41;4858367;28;102921;-72
2024/02/06 02:23:57;;;;;;;;;7.25;6.25;;;;;-143.90;100.00;75151.53;4865965;28;103428;-72
2024/02/06 02:26:24;;;;;;;;;9.25;7.50;;;;;-143.90;100.00;75155.69;4858601;28;102054;-72
2024/02/06 02:28:53;;;;;;;;;4.50;4.50;;;;;-143.90;100.00;75159.81;4857712;28;103460;-71
2024/02/06 02:31:20;;;;;;;;;8.75;7.00;;;;;-143.90;100.00;75161.88;4865200;28;102011;-72
2024/02/06 02:33:48;;;;;;;;;8.00;6.00;;;;;-143.90;100.00;75159.81;4862901;28;102526;-72
2024/02/06 02:36:15;;;;;;;;;6.75;6.00;;;;;-143.90;100.00;75157.75;4860903;28;101625;-72
2024/02/06 02:38:45;;;;;;;;;8.50;7.00;;;;;-143.90;100.00;75170.16;4854100;28;103585;-71
2024/02/06 02:41:11;;;;;;;;;5.50;4.50;;;;;-143.90;100.00;75166.03;4855367;28;103154;-71
2024/02/06 02:43:38;;;;;;;;;8.75;7.50;;;;;-143.90;100.00;75168.09;4862328;28;103917;-72
2024/02/06 02:46:05;;;;;;;;;8.00;6.75;;;;;-143.90;100.00;75172.22;4859639;28;102112;-72
2024/02/06 02:48:32;;;;;;;;;4.00;4.00;;;;;-143.90;100.00;75170.16;4864869;28;103362;-71
2024/02/06 02:50:59;;;;;;;;;6.00;4.00;;;;;-143.90;100.00;75176.34;4860877;28;102041;-71
2024/02/06 02:53:26;;;;;;;;;3.50;2.25;;;;;-143.90;100.00;75178.41;4858411;28;102637;-72
2024/02/06 02:55:52;;;;;;;;;9.25;6.00;;;;;-143.90;100.00;75182.56;4867666;28;101904;-71
2024/02/06 02:58:19;;;;;;;;;8.00;6.00;;;;;-143.90;100.00;75188.75;4862637;28;103533;-72
2024/02/06 03:00:45;;;;;;;;;7.75;6.00;;;;;-143.90;100.00;75197.03;4856397;28;102463;-72
2024/02/06 03:03:12;;;;;;;;;4.00;4.00;;;;;-143.90;100.00;75188.75;4862888;28;103116;-72
2024/02/06 03:05:39;;;;;;;;;8.00;6.00;;;;;-143.90;100.00;75194.97;4863726;28;102374;-73
2024/02/06 03:08:06;;;;;;;;;7.50;7.00;;;;;-143.90;100.00;75192.91;4864248;28;103470;-72
2024/02/06 03:10:32;;;;;;;;;8.00;5.50;;;;;-143.90;100.00;75201.16;4864602;28;103310;-72
2024/02/06 03:12:59;;;;;;;;;5.00;4.00;;;;;-143.90;100.00;75201.16;4852773;28;102007;-72
2024/02/06 03:15:25;;;;;;;;;7.75;6.00;;;;;-143.90;100.00;75203.22;4865384;28;102292;-72
2024/02/06 03:17:54;;;;;;;;;6.00;5.75;;;;;-143.90;100.00;75197.03;4857992;28;103340;-72
2024/02/06 03:20:21;;;;;;;;;3.50;3.50;;;;;-143.90;100.00;75197.03;4863337;28;101986;-72
2024/02/06 03:22:48;;;;;;;;;7.50;5.50;;;;;-143.90;100.00;75199.09;4855293;28;101579;-72
2024/02/06 03:25:15;;;;;;;;;6.50;4.00;;;;;-143.90;100.00;75197.03;4862084;28;102520;-72
2024/02/06 03:27:43;;;;;;;;;8.75;7.00;;;;;-143.90;100.00;75197.03;4847879;28;103139;-72
2024/02/06 03:30:10;;;;;;;;;8.50;7.25;;;;;-143.90;100.00;75201.16;4863732;28;105510;-72
2024/02/06 03:32:37;;;;;;;;;6.00;5.00;;;;;-143.90;100.00;75203.22;4857625;28;103129;-72
2024/02/06 03:35:07;;;;;;;;;6.75;6.75;;;;;-143.90;100.00;75211.50;4849344;28;107093;-72
2024/02/06 03:37:34;;;;;;;;;7.00;4.50;;;;;-143.90;100.00;75217.69;4868127;28;103333;-72
2024/02/06 03:40:01;;;;;;;;;7.25;6.25;;;;;-143.90;100.00;75217.69;4863408;28;101630;-72
2024/02/06 03:42:27;;;;;;;;;6.50;4.25;;;;;-143.90;100.00;75219.78;4859644;28;103049;-72
2024/02/06 03:44:54;;;;;;;;;8.50;6.75;;;;;-143.90;100.00;75215.63;4855772;28;102001;-72
2024/02/06 03:47:21;;;;;;;;;7.75;4.50;;;;;-143.90;100.00;75223.91;4861467;28;103568;-72
2024/02/06 03:49:48;;;;;;;;;4.50;3.75;;;;;-143.90;100.00;75230.09;4866096;28;102303;-73
2024/02/06 03:52:15;;;;;;;;;13.75;7.00;;;;;-143.90;100.00;75225.97;4862358;28;102059;-71
2024/02/06 03:54:41;;;;;;;;;8.25;6.50;;;;;-143.90;100.00;75234.25;4856717;28;105775;-72
2024/02/06 03:57:08;;;;;;;;;10.75;8.50;;;;;-143.90;100.00;75238.38;4857473;28;103440;-72
2024/02/06 03:59:35;;;;;;;;;7.75;7.25;;;;;-143.90;100.00;75242.50;4861892;28;102913;-72
2024/02/06 04:02:03;;;;;;;;;8.50;7.75;;;;;-143.90;100.00;75234.25;4866581;28;101957;-72
2024/02/06 04:04:30;;;;;;;;;13.00;9.00;;;;;-143.90;100.00;75238.38;4869330;28;103326;-72
2024/02/06 04:06:57;;;;;;;;;8.25;7.00;;;;;-143.90;100.00;75232.19;4857197;28;103538;-72
2024/02/06 04:09:23;;;;;;;;;10.00;8.50;;;;;-143.90;100.00;75240.44;4856671;28;103112;-72
2024/02/06 04:11:50;;;;;;;;;9.00;7.00;;;;;-143.90;100.00;75238.38;4864328;28;101602;-73
2024/02/06 04:14:16;;;;;;;;;10.00;8.75;;;;;-143.90;100.00;75246.66;4868508;28;101876;-71
2024/02/06 04:16:44;;;;;;;;;6.75;6.50;;;;;-143.90;100.00;75238.38;4857248;28;103504;-72
2024/02/06 04:19:11;;;;;;;;;7.00;6.00;;;;;-143.90;100.00;75238.38;4850196;28;101783;-72
2024/02/06 04:21:38;;;;;;;;;4.75;4.00;;;;;-143.90;100.00;75238.38;4863061;28;102221;-72
2024/02/06 04:24:06;;;;;;;;;4.00;3.50;;;;;-143.90;100.00;75236.31;4872479;28;101703;-72
2024/02/06 04:26:32;;;;;;;;;5.50;3.50;;;;;-143.90;100.00;75234.25;4867388;28;103386;-72
2024/02/06 04:28:59;;;;;;;;;6.25;4.00;;;;;-143.90;100.00;75223.91;4856513;28;101768;-72
2024/02/06 04:31:25;;;;;;;;;7.00;4.00;;;;;-143.90;100.00;75232.19;4862920;28;103159;-73
2024/02/06 04:33:52;;;;;;;;;4.50;3.25;;;;;-143.90;100.00;75232.19;4867572;28;101905;-73
2024/02/06 04:36:20;;;;;;;;;6.00;3.25;;;;;-143.90;100.00;75234.25;4867107;28;103378;-72
2024/02/06 04:38:47;;;;;;;;;8.50;7.00;;;;;-143.90;100.00;75238.38;4860477;28;102912;-72
2024/02/06 04:41:14;;;;;;;;;4.50;3.50;;;;;-143.90;100.00;75236.31;4866337;28;101997;-72
2024/02/06 04:43:41;;;;;;;;;7.75;4.50;;;;;-143.90;100.00;75236.31;4865631;28;102476;-72
2024/02/06 04:46:08;;;;;;;;;6.25;5.50;;;;;-143.90;100.00;75234.25;4866630;28;104154;-72
2024/02/06 04:48:35;;;;;;;;;6.00;6.00;;;;;-143.90;100.00;75234.25;4866239;28;102010;-72
2024/02/06 04:51:01;;;;;;;;;8.50;7.00;;;;;-143.90;100.00;75242.50;4862166;28;101626;-72
2024/02/06 04:53:31;;;;;;;;;0.75;0.75;;;;;-143.90;100.00;75234.25;4869419;28;102607;-72
2024/02/06 04:55:59;;;;;;;;;6.75;3.00;;;;;-143.90;100.00;75234.25;4849569;28;103756;-71
2024/02/06 04:58:26;;;;;;;;;7.00;4.00;;;;;-143.90;100.00;75234.25;4866701;28;101908;-72
2024/02/06 05:00:53;;;;;;;;;8.50;5.50;;;;;-143.90;100.00;75238.38;4860186;28;101849;-72
2024/02/06 05:03:20;;;;;;;;;5.50;4.00;;;;;-143.90;100.00;75240.44;4867426;28;102131;-72
2024/02/06 05:05:46;;;;;;;;;7.75;6.25;;;;;-143.90;100.00;75250.78;4864051;28;108149;-72
2024/02/06 05:08:13;;;;;;;;;7.50;6.00;;;;;-143.90;100.00;75246.66;4874157;28;102372;-72
2024/02/06 05:10:39;;;;;;;;;7.25;6.75;;;;;-143.90;100.00;75238.38;4865355;28;101966;-72
2024/02/06 05:13:07;;;;;;;;;5.50;2.75;;;;;-143.90;100.00;75234.25;4859186;28;102194;-72
2024/02/06 05:15:33;;;;;;;;;8.25;8.00;;;;;-143.90;100.00;75238.38;4870792;28;104202;-72
2024/02/06 05:18:00;;;;;;;;;7.75;7.00;;;;;-143.90;100.00;75246.66;4865492;28;103166;-71
2024/02/06 05:20:27;;;;;;;;;8.00;5.00;;;;;-143.90;100.00;75236.31;4873980;28;102701;-72
2024/02/06 05:22:54;;;;;;;;;10.00;7.75;;;;;-143.90;100.00;75238.38;4857781;28;101598;-72
2024/02/06 05:25:20;;;;;;;;;8.75;6.75;;;;;-143.90;100.00;75232.19;4867764;28;103521;-72
2024/02/06 05:27:50;;;;;;;;;4.00;3.25;;;;;-143.90;100.00;75236.31;4860590;28;103711;-72
2024/02/06 05:30:18;;;;;;;;;7.00;6.00;;;;;-143.90;100.00;75232.19;4862172;28;102940;-72
2024/02/06 05:32:45;;;;;;;;;8.75;7.25;;;;;-143.90;100.00;75238.38;4867279;28;102023;-72
2024/02/06 05:35:12;;;;;;;;;8.50;7.75;;;;;-143.90;100.00;75238.38;4860641;28;105928;-72
2024/02/06 05:37:38;;;;;;;;;8.00;7.50;;;;;-143.90;100.00;75238.38;4846679;28;102064;-72
2024/02/06 05:40:06;;;;;;;;;6.25;6.00;;;;;-143.90;100.00;75248.72;4863932;28;101979;-72
2024/02/06 05:42:33;;;;;;;;;7.75;6.50;;;;;-143.90;100.00;75250.78;4854126;28;101694;-72
2024/02/06 05:45:00;;;;;;;;;8.25;7.00;;;;;-143.90;100.00;75259.06;4856058;28;103685;-73
2024/02/06 05:47:27;;;;;;;;;9.00;7.75;;;;;-143.90;100.00;75265.25;4850297;28;101998;-73
2024/02/06 05:49:54;;;;;;;;;10.50;8.00;;;;;-143.90;100.00;75271.47;4861509;28;102702;-73
2024/02/06 05:52:21;;;;;;;;;9.75;7.50;;;;;-143.90;100.00;75279.72;4867227;28;102065;-73
2024/02/06 05:54:48;;;;;;;;;13.75;9.00;;;;;-143.90;100.00;75275.59;4866882;28;108042;-72
2024/02/06 05:57:15;;;;;;;;;8.50;7.00;;;;;-143.90;100.00;75281.78;4864769;28;102742;-72
2024/02/06 05:59:41;;;;;;;;;10.75;7.25;;;;;-143.90;100.00;75279.72;4866059;28;101840;-73
2024/02/06 06:02:08;;;;;;;;;11.00;11.00;;;;;-143.90;100.00;75288.00;4865937;28;101709;-72
2024/02/06 06:04:35;;;;;;;;;12.00;10.75;;;;;-143.90;100.00;75294.19;4866848;28;103580;-72
2024/02/06 06:07:02;;;;;;;;;16.25;9.75;;;;;-143.90;100.00;75283.84;4857835;28;102107;-72
2024/02/06 06:09:29;;;;;;;;;11.75;9.50;;;;;-143.90;100.00;75296.25;4867323;28;103168;-72
2024/02/06 06:11:56;;;;;;;;;12.00;8.00;;;;;-143.90;100.00;75288.00;4868656;28;101672;-72
2024/02/06 06:14:22;;;;;;;;;9.00;7.25;;;;;-143.90;100.00;75294.19;4862941;28;103518;-72
2024/02/06 06:16:49;;;;;;;;;11.25;8.50;;;;;-143.90;100.00;75292.13;4863417;28;101814;-72
2024/02/06 06:19:15;;;;;;;;;9.50;7.50;;;;;-143.90;100.00;75283.84;4877769;28;103772;-72
2024/02/06 06:21:42;;;;;;;;;9.00;8.50;;;;;-143.90;100.00;75296.25;4871735;28;101888;-73
2024/02/06 06:24:09;;;;;;;;;9.75;8.00;;;;;-143.90;100.00;75298.34;4868450;28;103643;-72
2024/02/06 06:26:37;;;;;;;;;16.50;11.00;;;;;-143.90;100.00;75296.25;4877980;28;101851;-73
2024/02/06 06:29:04;;;;;;;;;13.50;10.00;;;;;-143.90;100.00;75300.41;4871761;28;101622;-72
2024/02/06 06:31:31;;;;;;;;;13.75;11.25;;;;;-143.90;100.00;75306.59;4876870;28;101637;-72
2024/02/06 06:33:58;;;;;;;;;17.75;13.75;;;;;-143.90;100.00;75319.00;4875795;28;103371;-72
2024/02/06 06:36:24;;;;;;;;;13.75;11.75;;;;;-143.90;100.00;75312.81;4872618;28;101621;-72
2024/02/06 06:38:51;;;;;;;;;14.00;11.75;;;;;-143.90;100.00;75325.22;4863430;28;101650;-72
2024/02/06 06:41:18;;;;;;;;;12.25;11.25;;;;;-143.90;100.00;75323.16;4857333;28;101964;-72
2024/02/06 06:43:45;;;;;;;;;10.25;8.00;;;;;-143.90;100.00;75323.16;4873355;28;103680;-73
2024/02/06 06:46:11;;;;;;;;;12.75;8.00;;;;;-143.90;100.00;75312.81;4873627;28;106548;-72
2024/02/06 06:48:38;;;;;;;;;9.25;8.50;;;;;-143.90;100.00;75327.28;4876523;28;101852;-73
2024/02/06 06:51:05;;;;;;;;;13.00;9.00;;;;;-143.90;100.00;75329.34;4864695;28;102211;-73
2024/02/06 06:53:32;;;;;;;;;14.50;12.50;;;;;-143.90;100.00;75333.47;4873209;28;106736;-72
2024/02/06 06:55:58;;;;;;;;;11.50;8.50;;;;;-143.90;100.00;75335.53;4872274;28;101577;-72
2024/02/06 06:58:25;;;;;;;;;12.50;10.00;;;;;-143.90;100.00;75343.81;4869583;28;101882;-72
2024/02/06 07:00:53;;;;;;;;;12.75;10.50;;;;;-143.90;100.00;75337.63;4867326;28;103379;-73
2024/02/06 07:03:20;;;;;;;;;9.50;8.25;;;;;-143.90;100.00;75329.34;4878827;28;103317;-73
2024/02/06 07:05:51;;;;;;;;;14.50;12.00;;;;;-143.90;100.00;75331.41;4874302;28;102462;-72
2024/02/06 07:08:18;;;;;;;;;15.50;9.75;;;;;-143.90;100.00;75329.34;4876090;28;102571;-72
2024/02/06 07:10:44;;;;;;;;;10.00;9.25;;;;;-143.90;100.00;75323.16;4869694;28;102052;-73
2024/02/06 07:13:11;;;;;;;;;9.50;9.00;;;;;-143.90;100.00;75325.22;4864043;28;104504;-73
2024/02/06 07:15:38;;;;;;;;;11.75;11.25;;;;;-143.90;100.00;75316.94;4861017;28;102509;-72
2024/02/06 07:18:05;;;;;;;;;9.75;8.50;;;;;-143.90;100.00;75316.94;4868890;28;101597;-72
2024/02/06 07:20:31;;;;;;;;;13.00;11.25;;;;;-143.90;100.00;75312.81;4879603;28;101874;-72
2024/02/06 07:22:58;;;;;;;;;10.00;8.75;;;;;-143.90;100.00;75298.34;4871022;28;103473;-73
2024/02/06 07:25:27;;;;;;;;;15.50;14.00;;;;;-143.90;100.00;75302.47;4872292;28;101811;-72
2024/02/06 07:27:54;;;;;;;;;17.75;13.75;;;;;-143.90;100.00;75288.00;4872675;28;101730;-73
2024/02/06 07:30:20;;;;;;;;;15.25;11.25;;;;;-143.90;100.00;75279.72;4876006;28;101718;-73
2024/02/06 07:33:02;;;;;;;;;10.00;8.50;;;;;-143.90;100.00;75275.59;4859078;28;107962;-72
2024/02/06 07:35:29;;;;;;;;;10.75;9.50;;;;;-143.90;100.00;75267.31;4863690;28;102532;-72
2024/02/06 07:37:56;;;;;;;;;11.75;10.50;;;;;-143.90;100.00;75259.06;4874227;28;101667;-72
2024/02/06 07:40:22;;;;;;;;;12.00;11.00;;;;;-143.90;100.00;75263.19;4873707;28;102040;-73
2024/02/06 07:42:52;;;;;;;;;9.25;7.50;;;;;-143.90;100.00;75250.78;4868318;28;103193;-73
2024/02/06 07:45:19;;;;;;;;;11.50;10.00;;;;;-143.90;100.00;75254.91;4871203;28;103281;-71
2024/02/06 07:47:47;;;;;;;;;11.50;11.50;;;;;-143.90;100.00;75256.97;4868100;28;102191;-73
2024/02/06 07:50:14;;;;;;;;;11.00;9.50;;;;;-143.90;100.00;75267.31;4873192;28;101631;-74
2024/02/06 07:52:42;;;;;;;;;12.75;12.00;;;;;-143.90;100.00;75238.38;4871038;28;103337;-72
2024/02/06 07:55:09;;;;;;;;;11.00;10.00;;;;;-143.90;100.00;75238.38;4877126;28;101499;-72
2024/02/06 07:57:36;;;;;;;;;12.75;11.00;;;;;-143.90;100.00;75225.97;4875365;28;101848;-72
2024/02/06 08:00:04;;;;;;;;;11.75;9.00;;;;;-143.90;100.00;75213.56;4878136;28;102286;-72
2024/02/06 08:02:31;;;;;;;;;10.00;9.25;;;;;-143.90;100.00;75205.28;4880462;28;103494;-72
2024/02/06 08:04:58;;;;;;;;;10.00;10.00;;;;;-143.90;100.00;75205.28;4871413;28;105337;-72
2024/02/06 08:07:27;;;;;;;;;12.75;11.75;;;;;-143.90;100.00;75197.03;4873332;28;101870;-73
2024/02/06 08:09:54;;;;;;;;;11.75;10.75;;;;;-143.90;100.00;75197.03;4881684;28;102015;-72
2024/02/06 08:12:21;;;;;;;;;17.25;12.00;;;;;-143.90;100.00;75188.75;4879187;28;103650;-73
2024/02/06 08:14:51;;;;;;;;;19.50;14.00;;;;;-143.90;100.00;75188.75;4869006;28;102446;-72
2024/02/06 08:17:19;;;;;;;;;13.25;10.00;;;;;-143.90;100.00;75184.63;4874240;28;101819;-72
2024/02/06 08:19:45;;;;;;;;;14.75;12.00;;;;;-143.90;100.00;75186.69;4884980;28;101922;-72
2024/02/06 08:22:12;;;;;;;;;12.25;11.50;;;;;-143.90;100.00;75180.50;4874394;28;103387;-72
2024/02/06 08:24:39;;;;;;;;;9.50;9.00;;;;;-143.90;100.00;75166.03;4877362;28;104032;-73
2024/02/06 08:27:05;;;;;;;;;17.75;14.75;;;;;-143.90;100.00;75155.69;4870263;28;102632;-73
2024/02/06 08:29:32;;;;;;;;;22.00;15.00;;;;;-143.90;100.00;75153.63;4879282;28;101913;-72
2024/02/06 08:31:59;;;;;;;;;14.00;14.00;;;;;-143.90;100.00;75143.28;4879209;28;103481;-73
2024/02/06 08:34:25;;;;;;;;;17.25;15.75;;;;;-143.90;100.00;75166.03;4883206;28;101663;-72
2024/02/06 08:36:52;;;;;;;;;18.50;15.75;;;;;-143.90;100.00;75172.22;4871269;28;102223;-73
2024/02/06 08:39:19;;;;;;;;;15.25;10.25;;;;;-143.90;100.00;75159.81;4877199;28;101576;-73
2024/02/06 08:41:46;;;;;;;;;12.75;11.75;;;;;-143.90;100.00;75155.69;4880075;28;103514;-72
2024/02/06 08:44:14;;;;;;;;;11.25;9.50;;;;;-143.90;100.00;75151.53;4878317;28;102057;-72
2024/02/06 08:46:41;;;;;;;;;13.25;13.00;;;;;-143.90;100.00;75139.16;4876002;28;102102;-72
2024/02/06 08:49:08;;;;;;;;;19.00;12.00;;;;;-143.90;100.00;75145.34;4874239;28;101961;-72
2024/02/06 08:51:34;;;;;;;;;17.25;11.25;;;;;-143.90;100.00;75153.63;4876541;28;103369;-73
2024/02/06 08:54:01;;;;;;;;;18.00;12.50;;;;;-143.90;100.00;75151.53;4877600;28;101988;-72
2024/02/06 08:56:30;;;;;;;;;13.75;12.00;;;;;-143.90;100.00;75132.94;4879568;28;106121;-72
2024/02/06 08:58:57;;;;;;;;;15.50;13.50;;;;;-143.90;100.00;75141.22;4876716;28;101886;-72
2024/02/06 09:01:25;;;;;;;;;14.00;13.25;;;;;-143.90;100.00;75143.28;4873577;28;103250;-72
2024/02/06 09:03:52;;;;;;;;;15.25;14.00;;;;;-143.90;100.00;75153.63;4876520;28;101852;-73
2024/02/06 09:06:27;;;;;;;;;14.50;11.75;;;;;-143.90;100.00;75137.06;4871924;28;101598;-73
2024/02/06 09:08:58;;;;;;;;;14.25;11.25;;;;;-143.90;100.00;75110.19;4870499;28;101930;-72
2024/02/06 09:11:26;;;;;;;;;15.00;12.75;;;;;-143.90;100.00;75106.06;4877434;28;108424;-73
2024/02/06 09:13:56;;;;;;;;;11.00;9.00;;;;;-143.90;100.00;75110.19;4870794;28;101564;-72
2024/02/06 09:16:23;;;;;;;;;10.50;10.50;;;;;-143.90;100.00;75101.94;4871143;28;102108;-72
2024/02/06 09:18:51;;;;;;;;;13.00;11.75;;;;;-143.90;100.00;75087.47;4855657;28;101957;-72
2024/02/06 09:21:18;;;;;;;;;14.50;11.00;;;;;-143.90;100.00;75068.84;4860284;28;103698;-72
2024/02/06 09:23:45;;;;;;;;;12.50;9.75;;;;;-143.90;100.00;75072.97;4873399;28;101904;-73
2024/02/06 09:26:15;;;;;;;;;14.25;10.00;;;;;-143.90;100.00;75060.59;4869201;28;101821;-72
2024/02/06 09:28:42;;;;;;;;;16.75;14.75;;;;;-143.90;100.00;75081.25;4878916;28;101880;-72
2024/02/06 09:31:09;;;;;;;;;21.75;20.50;;;;;-143.90;100.00;75083.31;4865512;28;103626;-73
2024/02/06 09:33:36;;;;;;;;;16.00;13.25;;;;;-143.90;100.00;75064.72;4873805;28;101790;-72
2024/02/06 09:36:05;;;;;;;;;24.25;16.00;;;;;-143.90;100.00;75052.31;4876544;28;101832;-72
2024/02/06 09:38:31;;;;;;;;;19.25;15.75;;;;;-143.90;100.00;75056.44;4873444;28;102071;-73
2024/02/06 09:40:59;;;;;;;;;20.25;14.50;;;;;-143.90;100.00;75056.44;4863177;28;103688;-73
2024/02/06 09:43:27;;;;;;;;;17.75;13.50;;;;;-143.90;100.00;75052.31;4880574;28;101613;-73
2024/02/06 09:45:54;;;;;;;;;14.50;13.25;;;;;-143.90;100.00;75044.03;4875664;28;101896;-73
2024/02/06 09:48:24;;;;;;;;;16.75;15.00;;;;;-143.90;100.00;75044.03;4872651;28;101573;-72
2024/02/06 09:50:54;;;;;;;;;10.00;8.25;;;;;-143.90;100.00;75056.44;4865829;28;103737;-74
2024/02/06 09:53:29;;;;;;;;;9.50;9.25;;;;;-143.90;100.00;75056.44;4875411;28;101974;-72
2024/02/06 09:55:56;;;;;;;;;14.00;12.25;;;;;-143.90;100.00;75046.09;4870229;28;101801;-73
2024/02/06 09:58:24;;;;;;;;;10.75;8.00;;;;;-143.90;100.00;75064.72;4876515;28;101743;-72
2024/02/06 10:00:52;;;;;;;;;8.00;7.25;;;;;-143.90;100.00;75066.78;4867634;28;103450;-72
2024/02/06 10:03:28;;;;;;;;;8.25;7.50;;;;;-143.90;100.00;75072.97;4851579;28;103993;-75
2024/02/06 10:05:58;;;;;;;;;9.00;9.00;;;;;-143.90;100.00;75062.66;4875388;28;101753;-73
2024/02/06 10:08:26;;;;;;;;;11.75;9.00;;;;;-143.90;100.00;75033.72;4876287;28;101867;-73
2024/02/06 10:10:53;;;;;;;;;11.00;8.00;;;;;-143.90;100.00;75041.97;4864449;28;103561;-73
2024/02/06 10:13:21;;;;;;;;;9.25;8.00;;;;;-143.90;100.00;75039.91;4872493;28;101821;-73
2024/02/06 10:15:49;;;;;;;;;6.25;6.00;;;;;-143.90;100.00;75048.19;4871357;28;101773;-73
2024/02/06 10:18:15;;;;;;;;;8.25;8.00;;;;;-143.90;100.00;75052.31;4872645;28;102189;-73
2024/02/06 10:20:54;;;;;;;;;8.75;8.00;;;;;-143.90;100.00;75052.31;4871269;28;103405;-73
2024/02/06 10:23:21;;;;;;;;;8.50;6.00;;;;;-143.90;100.00;75044.03;4876196;28;105010;-73
2024/02/06 10:25:48;;;;;;;;;14.25;11.50;;;;;-143.90;100.00;75039.91;4874761;28;101903;-72
2024/02/06 10:28:23;;;;;;;;;12.75;9.00;;;;;-143.90;100.00;75050.25;4873343;28;101898;-73
2024/02/06 10:30:50;;;;;;;;;12.00;9.75;;;;;-143.90;100.00;75056.44;4867050;28;103330;-72
2024/02/06 10:33:18;;;;;;;;;10.00;8.75;;;;;-143.90;100.00;75060.59;4854897;28;101890;-72
2024/02/06 10:35:44;;;;;;;;;12.50;12.25;;;;;-143.90;100.00;75056.44;4871490;28;104409;-74
2024/02/06 10:38:12;;;;;;;;;14.50;12.75;;;;;-143.90;100.00;75044.03;4875060;28;102036;-73
2024/02/06 10:40:44;;;;;;;;;14.00;12.50;;;;;-143.90;100.00;75060.59;4874256;28;103684;-73
2024/02/06 10:43:12;;;;;;;;;13.25;11.75;;;;;-143.90;100.00;75064.72;4865331;28;101822;-74
2024/02/06 10:46:00;;;;;;;;;15.50;13.75;;;;;-143.90;100.00;75072.97;4872192;28;102042;-71
2024/02/06 10:48:28;;;;;;;;;15.50;14.50;;;;;-143.90;100.00;75085.38;4874514;28;101867;-72
2024/02/06 10:51:00;;;;;;;;;15.00;11.75;;;;;-143.90;100.00;75077.13;4864820;28;108013;-72
2024/02/06 10:53:28;;;;;;;;;14.50;13.50;;;;;-143.90;100.00;75072.97;4875715;28;101990;-72
2024/02/06 10:56:02;;;;;;;;;21.00;14.00;;;;;-143.90;100.00;75083.31;4874897;28;101787;-73
2024/02/06 10:58:38;;;;;;;;;14.75;13.00;;;;;-143.90;100.00;75085.38;4873359;28;104153;-71